Terminal Aerodrome Forecast
Issued by NWS

Home | Current Version | Previous Version | Text Only | Print | Product List | Glossary On
Versions: 1 2 3 4 5 6 7 8 9 10 11 12 13 14 15 16 17 18 19 20 21 22 23 24 25 26 27 28 29 30 31 32 33 34 35 36 37 38 39 40 41 42 43 44 45 46 47 48 49 50
000
FTUS45 KBOU 282242 AAB
TAFBJC
TAF AMD
KBJC 282242Z 2823/0118 36006KT P6SM FEW030 SCT050 BKN120
     FM010000 36006KT P6SM VCSH SCT020 BKN040 OVC120
      TEMPO 0101/0102 3SM -SN BR SCT008 OVC012
     FM010200 35006KT 4SM -SN BR BKN008 OVC015
      TEMPO 0102/0106 2SM -SN BR OVC004
     FM010800 36006KT P6SM SCT006 OVC012
      TEMPO 0108/0112 4SM -SN BR OVC006
     FM011500 06005KT P6SM VCSH SCT015 OVC025=

USA.gov is the U.S. government's official web portal to all federal, state and local government web resources and services.